Portada
METAR-TAF:

METAR-TAF

Aeropuertos :

Ciudad Ho Chi Minh, Vietnam

Aeropuerto Internacional de Tan Son Nhat

latitud: 10-49N, longitud: 106-40E, altitud: 19 m

Observación

El informe se hizo hace 45 minutos, a las 15:00 UTC
Viento 2 kt con dirección variable
Temperatura 26°C
Humedad 89%
Presión 1007 hPa
Visibilidad 10 km o más
Nubes dispersas a una altura de 1500 ft
Cielo nuboso a una altura de 5000 ft

METAR: VVTS 231500Z VRB02KT 9999 SCT015 BKN050 26/24 Q1007 NOSIG

Hora: 22:45 (15:45 UTC)

Pronóstico

El informe se hizo hace 4 horas y 45 minutos, a las 11:00 UTC
Pronóstico válido del 23 a las 12 UTC al 24 a las 18 UTC
Viento 6 kt del sureste
Visibilidad: 9000 m
Escasas nubes a una altura de 1500 ft
Cielo nuboso a una altura de 5000 ft

TAF: VVTS 231100Z 2312/2418 14006KT 9000 FEW015 BKN050

Observaciones y pronósticos meteorológicos de más de 4000 aeropuertos (mensajes METAR y TAF).

Los puntos amarillos y rojos representan las estaciones disponibles.

Ponga el ratón en el punto deseado para ver el nombre de la estación.

Haga clic para ver las observaciones y los pronósticos meteorológicos.

Para cambiar el mapa : haga clic en los botones verdes con una cruz de color negro para hacer un zoom, en el botón verde con un guión para alejar o en las flechas verdes para mapas adyacentes.


METAR-TAF: